createdAt,value
2022-08-16T00:00:27.236Z,33.80
2022-08-16T00:03:13.679Z,33.80
2022-08-16T00:05:48.285Z,33.80
2022-08-16T00:08:36.707Z,33.80
2022-08-16T00:11:15.207Z,33.90
2022-08-16T00:13:54.156Z,33.90
2022-08-16T00:17:05.330Z,33.80
2022-08-16T00:19:15.168Z,33.80
2022-08-16T00:21:46.563Z,33.80
2022-08-16T00:24:31.143Z,33.70
2022-08-16T00:27:04.286Z,33.80
2022-08-16T00:29:33.990Z,33.80
2022-08-16T00:32:07.237Z,33.80
2022-08-16T00:34:43.922Z,33.70
2022-08-16T00:37:24.364Z,33.70
2022-08-16T00:39:58.491Z,33.70
2022-08-16T00:42:32.436Z,33.60
2022-08-16T00:45:08.286Z,33.50
2022-08-16T00:47:49.458Z,33.50
2022-08-16T00:50:35.940Z,33.40
2022-08-16T00:53:06.218Z,33.40
2022-08-16T00:55:40.128Z,33.30
2022-08-16T00:58:13.135Z,33.30
2022-08-16T01:00:54.148Z,33.30
2022-08-16T01:03:30.041Z,33.30
2022-08-16T01:06:00.401Z,33.30
2022-08-16T01:08:54.985Z,33.20
2022-08-16T01:11:25.403Z,33.20
2022-08-16T01:14:03.745Z,33.20
2022-08-16T01:16:33.583Z,33.20
2022-08-16T01:19:11.319Z,33.20
2022-08-16T01:21:48.806Z,33.20
2022-08-16T01:24:51.985Z,33.20
2022-08-16T01:27:29.850Z,33.20
2022-08-16T01:30:05.245Z,33.20
2022-08-16T01:33:01.504Z,33.20
2022-08-16T01:35:39.564Z,33.20
2022-08-16T01:38:22.612Z,33.20
2022-08-16T01:41:02.511Z,33.20
2022-08-16T01:43:35.613Z,33.20
2022-08-16T01:46:29.977Z,33.30
2022-08-16T01:49:07.195Z,33.30
2022-08-16T01:51:39.193Z,33.30
2022-08-16T01:54:10.224Z,33.40
2022-08-16T01:56:52.374Z,33.40
2022-08-16T01:59:23.184Z,33.40
2022-08-16T02:02:00.205Z,33.40
2022-08-16T02:04:54.340Z,33.40
2022-08-16T02:07:23.706Z,33.40
2022-08-16T02:09:56.887Z,33.40
2022-08-16T02:12:50.546Z,33.40
2022-08-16T02:15:24.664Z,33.40
2022-08-16T02:17:55.088Z,33.50
2022-08-16T02:20:26.211Z,33.50
2022-08-16T02:22:57.646Z,33.40
2022-08-16T02:25:34.941Z,33.40
2022-08-16T02:28:19.248Z,33.50
2022-08-16T02:30:51.807Z,33.40
2022-08-16T02:33:24.921Z,33.50
2022-08-16T02:36:47.987Z,33.50
2022-08-16T02:39:07.628Z,33.30
2022-08-16T02:41:39.632Z,33.10
2022-08-16T02:44:14.779Z,33.10
2022-08-16T02:46:49.852Z,33.00
2022-08-16T02:49:21.526Z,32.90
2022-08-16T02:51:51.691Z,32.90
2022-08-16T02:54:20.996Z,32.90
2022-08-16T02:56:53.029Z,32.90
2022-08-16T02:59:24.288Z,32.90
2022-08-16T03:01:53.092Z,32.90
2022-08-16T03:04:50.709Z,32.80
2022-08-16T03:07:27.661Z,32.80
2022-08-16T03:10:00.506Z,32.80
2022-08-16T03:12:36.708Z,32.80
2022-08-16T03:15:11.873Z,32.70
2022-08-16T03:17:53.213Z,32.70
2022-08-16T03:20:32.589Z,32.70
2022-08-16T03:23:03.292Z,32.70
2022-08-16T03:25:44.691Z,32.70
2022-08-16T03:28:17.291Z,32.70
2022-08-16T03:30:49.631Z,32.70
2022-08-16T03:33:19.789Z,32.70
2022-08-16T03:35:59.367Z,32.70
2022-08-16T03:38:50.125Z,32.70
2022-08-16T03:41:25.194Z,32.70
2022-08-16T03:44:00.229Z,32.70
2022-08-16T03:46:44.933Z,32.60
2022-08-16T03:49:22.589Z,32.60
2022-08-16T03:51:54.634Z,32.60
2022-08-16T03:54:28.612Z,32.60
2022-08-16T03:56:58.955Z,32.70
2022-08-16T03:59:32.386Z,32.70
2022-08-16T04:02:12.209Z,32.70
2022-08-16T04:04:54.116Z,32.70
2022-08-16T04:07:24.746Z,32.70
2022-08-16T04:09:54.040Z,32.80
2022-08-16T04:12:53.904Z,32.80
2022-08-16T04:15:16.833Z,32.80
2022-08-16T04:17:57.926Z,32.80
2022-08-16T04:20:33.606Z,32.80
2022-08-16T04:23:08.509Z,32.90
2022-08-16T04:25:40.585Z,32.80
2022-08-16T04:28:29.703Z,32.90
2022-08-16T04:31:00.833Z,32.90
2022-08-16T04:33:35.064Z,33.00
2022-08-16T04:36:05.392Z,33.10
2022-08-16T04:38:35.411Z,33.30
2022-08-16T04:41:05.214Z,33.20
2022-08-16T04:43:38.596Z,33.30
2022-08-16T04:47:00.328Z,33.30
2022-08-16T04:49:08.066Z,33.20
2022-08-16T04:51:36.920Z,33.30
2022-08-16T04:54:09.079Z,33.30
2022-08-16T04:56:42.808Z,33.20
2022-08-16T04:59:14.967Z,33.30
2022-08-16T05:01:59.055Z,33.30
2022-08-16T05:04:31.304Z,33.30
2022-08-16T05:07:01.990Z,33.40
2022-08-16T05:09:49.598Z,33.40
2022-08-16T05:12:22.302Z,33.40
2022-08-16T05:15:03.101Z,33.40
2022-08-16T05:17:36.288Z,33.50
2022-08-16T05:20:39.574Z,33.60
2022-08-16T05:23:02.809Z,33.70
2022-08-16T05:25:41.228Z,33.70
2022-08-16T05:28:18.745Z,33.80
2022-08-16T05:30:53.502Z,33.80
2022-08-16T05:33:26.355Z,33.80
2022-08-16T05:35:59.552Z,33.90
2022-08-16T05:38:39.216Z,34.00
2022-08-16T05:41:14.035Z,34.10
2022-08-16T05:43:46.873Z,34.10
2022-08-16T05:46:30.502Z,34.20
2022-08-16T05:49:22.273Z,34.40
2022-08-16T05:51:56.764Z,34.40
2022-08-16T05:54:28.981Z,34.50
2022-08-16T05:57:00.475Z,34.60
2022-08-16T05:59:30.686Z,34.60
2022-08-16T06:01:59.985Z,34.60
2022-08-16T06:04:37.300Z,34.60
2022-08-16T06:07:24.943Z,34.60
2022-08-16T06:10:33.201Z,34.50
2022-08-16T06:13:05.347Z,34.50
2022-08-16T06:15:35.679Z,34.50
2022-08-16T06:18:06.425Z,34.50
2022-08-16T06:20:36.771Z,34.60
2022-08-16T06:23:20.870Z,34.60
2022-08-16T06:26:08.025Z,34.70
2022-08-16T06:28:41.884Z,34.70
2022-08-16T06:31:16.997Z,34.70
2022-08-16T06:33:49.582Z,34.80
2022-08-16T06:36:24.089Z,34.80
2022-08-16T06:39:12.200Z,34.90
2022-08-16T06:41:53.685Z,34.90
2022-08-16T06:44:54.691Z,34.90
2022-08-16T06:47:52.400Z,35.00
2022-08-16T06:50:28.589Z,35.00
2022-08-16T06:53:01.094Z,35.00
2022-08-16T06:55:38.574Z,35.00
2022-08-16T06:58:22.237Z,35.10
2022-08-16T07:01:22.923Z,35.10
2022-08-16T07:04:03.418Z,35.20
2022-08-16T07:06:43.518Z,35.30
2022-08-16T07:09:15.950Z,35.40
2022-08-16T07:11:51.845Z,35.50
2022-08-16T07:14:33.046Z,35.60
2022-08-16T07:17:03.367Z,35.70
2022-08-16T07:20:04.151Z,35.80
2022-08-16T07:22:39.231Z,35.80
2022-08-16T07:25:25.525Z,36.00
2022-08-16T07:27:55.993Z,36.10
2022-08-16T07:30:45.498Z,36.20
2022-08-16T07:33:51.206Z,36.30
2022-08-16T07:36:24.733Z,36.40
2022-08-16T07:38:54.594Z,36.60
2022-08-16T07:41:24.393Z,36.80
2022-08-16T07:44:01.921Z,37.30
2022-08-16T07:46:37.440Z,38.20
2022-08-16T07:49:18.445Z,39.00
2022-08-16T07:51:47.703Z,39.80
2022-08-16T07:54:21.154Z,40.50
2022-08-16T07:56:55.798Z,41.00
2022-08-16T07:59:45.847Z,41.60
2022-08-16T08:02:20.026Z,42.10
2022-08-16T08:04:50.154Z,42.50
2022-08-16T08:07:19.612Z,42.80
2022-08-16T08:09:53.906Z,43.00
2022-08-16T08:12:32.005Z,42.80
2022-08-16T08:15:11.670Z,42.60
2022-08-16T08:17:44.787Z,42.20
2022-08-16T08:20:26.718Z,42.40
2022-08-16T08:23:01.662Z,42.40
2022-08-16T08:25:54.882Z,42.60
2022-08-16T08:28:31.905Z,42.90
2022-08-16T08:31:06.798Z,43.20
2022-08-16T08:33:39.967Z,43.40
2022-08-16T08:36:21.990Z,43.30
2022-08-16T08:38:53.493Z,43.20
2022-08-16T08:41:28.876Z,43.00
2022-08-16T08:44:00.263Z,42.90
2022-08-16T08:46:35.735Z,42.80
2022-08-16T08:49:08.822Z,42.90
2022-08-16T08:51:42.183Z,43.20
2022-08-16T08:54:18.707Z,43.40
2022-08-16T08:56:52.816Z,43.50
2022-08-16T08:59:31.554Z,43.60
2022-08-16T09:02:03.119Z,43.90
2022-08-16T09:04:41.611Z,44.40
2022-08-16T09:07:10.698Z,44.80
2022-08-16T09:09:41.508Z,45.30
2022-08-16T09:12:35.728Z,45.70
2022-08-16T09:15:15.143Z,46.20
2022-08-16T09:17:53.401Z,46.90
2022-08-16T09:20:30.508Z,47.20
2022-08-16T09:23:03.377Z,47.60
2022-08-16T09:25:36.797Z,47.80
2022-08-16T09:28:10.444Z,47.90
2022-08-16T09:30:57.108Z,48.00
2022-08-16T09:33:32.621Z,48.00
2022-08-16T09:36:11.974Z,48.00
2022-08-16T09:38:59.865Z,48.00
2022-08-16T09:41:28.850Z,48.10
2022-08-16T09:44:00.731Z,48.30
2022-08-16T09:46:44.560Z,48.50
2022-08-16T09:49:16.704Z,48.60
2022-08-16T09:51:54.535Z,48.60
2022-08-16T09:54:32.396Z,48.70
2022-08-16T09:57:03.043Z,48.60
2022-08-16T09:59:38.271Z,48.60
2022-08-16T10:02:26.155Z,48.50
2022-08-16T10:04:59.921Z,48.40
2022-08-16T10:07:44.561Z,48.50
2022-08-16T10:10:18.952Z,48.50
2022-08-16T10:13:16.314Z,48.30
2022-08-16T10:15:55.745Z,48.30
2022-08-16T10:19:00.187Z,48.10
2022-08-16T10:21:18.467Z,47.50
2022-08-16T10:23:53.474Z,46.90
2022-08-16T10:27:16.243Z,46.30
2022-08-16T10:29:20.103Z,45.90
2022-08-16T10:31:53.787Z,45.30
2022-08-16T10:34:31.331Z,44.80
2022-08-16T10:37:04.225Z,44.20
2022-08-16T10:39:41.718Z,43.70
2022-08-16T10:42:13.184Z,43.30
2022-08-16T10:44:42.702Z,42.90
2022-08-16T10:47:22.753Z,42.60
2022-08-16T10:49:52.245Z,42.30
2022-08-16T10:52:24.285Z,42.00
2022-08-16T10:55:40.767Z,41.60
2022-08-16T10:57:42.565Z,41.40
2022-08-16T11:00:21.675Z,41.00
2022-08-16T11:02:58.614Z,40.80
2022-08-16T11:08:23.454Z,40.50
2022-08-16T11:11:10.533Z,40.30
2022-08-16T11:14:10.804Z,40.00
2022-08-16T11:19:23.716Z,39.70
2022-08-16T11:24:45.193Z,39.50
2022-08-16T11:27:19.567Z,39.30
2022-08-16T11:29:53.021Z,39.20
2022-08-16T11:32:31.803Z,39.10
2022-08-16T11:35:11.903Z,39.10
2022-08-16T11:40:47.042Z,39.00
2022-08-16T11:43:26.519Z,39.10
2022-08-16T11:45:56.918Z,39.10
2022-08-16T11:48:27.575Z,39.20
2022-08-16T11:50:58.121Z,39.20
2022-08-16T11:53:28.333Z,39.30
2022-08-16T11:56:07.065Z,39.20
2022-08-16T11:58:39.561Z,39.20
2022-08-16T12:01:10.656Z,39.10
2022-08-16T12:03:41.891Z,39.10
2022-08-16T12:06:30.334Z,39.00
2022-08-16T12:09:01.860Z,38.90
2022-08-16T12:11:33.896Z,38.70
2022-08-16T12:14:04.353Z,38.60
2022-08-16T12:16:34.799Z,38.50
2022-08-16T12:19:05.891Z,38.50
2022-08-16T12:21:36.145Z,38.60
2022-08-16T12:24:24.385Z,38.50
2022-08-16T12:26:54.890Z,38.50
2022-08-16T12:29:25.920Z,38.50
2022-08-16T12:31:59.240Z,38.60
2022-08-16T12:34:30.495Z,38.60
2022-08-16T12:37:02.521Z,38.60
2022-08-16T12:39:31.651Z,38.60
2022-08-16T12:42:03.116Z,38.60
2022-08-16T12:44:32.263Z,38.60
2022-08-16T12:47:18.399Z,38.50
2022-08-16T12:49:48.615Z,38.50
2022-08-16T12:52:33.849Z,38.60
2022-08-16T12:55:06.932Z,38.60
2022-08-16T12:57:39.106Z,38.60
2022-08-16T13:00:26.433Z,38.60
2022-08-16T13:02:55.691Z,38.60
2022-08-16T13:05:25.242Z,38.60
2022-08-16T13:07:58.120Z,38.60
2022-08-16T13:10:38.076Z,38.60
2022-08-16T13:13:10.101Z,38.50
2022-08-16T13:15:51.517Z,38.50
2022-08-16T13:18:34.195Z,38.40
2022-08-16T13:21:06.077Z,38.40
2022-08-16T13:23:35.866Z,38.40
2022-08-16T13:26:06.104Z,38.20
2022-08-16T13:28:38.018Z,38.20
2022-08-16T13:31:08.127Z,38.20
2022-08-16T13:33:37.291Z,38.30
2022-08-16T13:36:17.187Z,38.30
2022-08-16T13:38:55.428Z,38.30
2022-08-16T13:41:26.986Z,38.20
2022-08-16T13:44:04.193Z,38.20
2022-08-16T13:46:38.864Z,38.20
2022-08-16T13:49:07.683Z,38.30
2022-08-16T13:51:36.330Z,38.30
2022-08-16T13:54:08.030Z,38.40
2022-08-16T13:56:39.979Z,38.50
2022-08-16T13:59:20.930Z,38.60
2022-08-16T14:01:54.568Z,38.70
2022-08-16T14:04:26.413Z,38.90
2022-08-16T14:06:58.161Z,39.00
2022-08-16T14:09:28.848Z,39.10
2022-08-16T14:12:00.654Z,39.20
2022-08-16T14:14:32.066Z,39.20
2022-08-16T14:17:03.111Z,39.30
2022-08-16T14:19:31.843Z,39.50
2022-08-16T14:22:14.444Z,39.60
2022-08-16T14:24:55.455Z,39.70
2022-08-16T14:27:30.856Z,39.80
2022-08-16T14:30:02.026Z,39.90
2022-08-16T14:32:33.920Z,39.90
2022-08-16T14:35:07.681Z,40.00
2022-08-16T14:37:37.127Z,39.90
2022-08-16T14:40:07.491Z,39.70
2022-08-16T14:42:36.911Z,39.70
2022-08-16T14:45:09.540Z,39.60
2022-08-16T14:47:38.894Z,39.50
2022-08-16T14:50:13.491Z,39.50
2022-08-16T14:52:55.185Z,39.50
2022-08-16T14:55:28.056Z,39.40
2022-08-16T14:57:57.117Z,39.30
2022-08-16T15:00:34.013Z,39.20
2022-08-16T15:03:10.950Z,39.10
2022-08-16T15:05:42.002Z,39.00
2022-08-16T15:08:11.459Z,39.00
2022-08-16T15:10:42.865Z,38.90
2022-08-16T15:13:16.415Z,38.90
2022-08-16T15:15:56.209Z,38.80
2022-08-16T15:18:28.185Z,38.80
2022-08-16T15:21:01.832Z,38.70
2022-08-16T15:23:33.985Z,38.70
2022-08-16T15:26:04.573Z,38.60
2022-08-16T15:28:38.242Z,38.60
2022-08-16T15:31:12.890Z,38.50
2022-08-16T15:33:50.625Z,38.40
2022-08-16T15:36:23.662Z,38.30
2022-08-16T15:39:06.900Z,38.30
2022-08-16T15:42:11.099Z,38.30
2022-08-16T15:44:45.071Z,38.30
2022-08-16T15:47:26.395Z,38.30
2022-08-16T15:49:57.870Z,38.30
2022-08-16T15:52:30.853Z,38.30
2022-08-16T15:55:07.575Z,38.30
2022-08-16T15:57:51.377Z,38.30
2022-08-16T16:00:22.272Z,38.30
2022-08-16T16:03:08.559Z,38.30
2022-08-16T16:05:39.016Z,38.30
2022-08-16T16:08:11.181Z,38.40
2022-08-16T16:10:41.588Z,38.40
2022-08-16T16:13:11.298Z,38.40
2022-08-16T16:15:43.245Z,38.40
2022-08-16T16:18:15.768Z,38.50
2022-08-16T16:20:48.434Z,38.50
2022-08-16T16:23:24.610Z,38.50
2022-08-16T16:25:55.717Z,38.50
2022-08-16T16:29:05.423Z,38.60
2022-08-16T16:31:20.116Z,38.60
2022-08-16T16:33:57.817Z,38.60
2022-08-16T16:36:29.417Z,38.60
2022-08-16T16:38:58.510Z,38.60
2022-08-16T16:41:30.421Z,38.30
2022-08-16T16:44:02.418Z,38.20
2022-08-16T16:46:42.396Z,38.20
2022-08-16T16:49:15.797Z,38.10
2022-08-16T16:51:50.319Z,38.00
2022-08-16T16:54:28.022Z,38.00
2022-08-16T16:56:58.570Z,37.90
2022-08-16T16:59:28.056Z,37.80
2022-08-16T17:02:41.691Z,37.80
2022-08-16T17:04:49.678Z,37.70
2022-08-16T17:07:23.933Z,37.70
2022-08-16T17:09:54.136Z,37.70
2022-08-16T17:12:46.568Z,37.60
2022-08-16T17:15:13.202Z,37.60
2022-08-16T17:18:00.219Z,37.70
2022-08-16T17:20:32.294Z,37.60
2022-08-16T17:23:01.069Z,37.60
2022-08-16T17:25:36.546Z,37.60
2022-08-16T17:28:58.132Z,37.60
2022-08-16T17:30:56.530Z,37.60
2022-08-16T17:33:26.659Z,37.60
2022-08-16T17:36:08.715Z,37.60
2022-08-16T17:38:44.610Z,37.70
2022-08-16T17:41:16.310Z,37.70
2022-08-16T17:43:46.081Z,37.60
2022-08-16T17:46:41.268Z,37.50
2022-08-16T17:49:05.829Z,37.50
2022-08-16T17:51:35.744Z,37.50
2022-08-16T17:54:04.591Z,37.50
2022-08-16T17:56:33.725Z,37.50
2022-08-16T17:59:02.679Z,37.50
2022-08-16T18:01:31.775Z,37.50
2022-08-16T18:04:08.202Z,37.40
2022-08-16T18:06:40.625Z,37.30
2022-08-16T18:09:10.733Z,37.30
2022-08-16T18:11:44.539Z,37.30
2022-08-16T18:14:18.091Z,37.20
2022-08-16T18:16:48.680Z,37.10
2022-08-16T18:19:18.087Z,37.00
2022-08-16T18:22:05.509Z,37.00
2022-08-16T18:24:35.617Z,36.90
2022-08-16T18:27:26.336Z,36.80
2022-08-16T18:29:53.572Z,36.70
2022-08-16T18:32:24.791Z,36.70
2022-08-16T18:34:54.933Z,36.60
2022-08-16T18:37:25.546Z,36.60
2022-08-16T18:39:54.210Z,36.40
2022-08-16T18:42:25.485Z,36.40
2022-08-16T18:44:54.050Z,36.40
2022-08-16T18:47:22.714Z,36.30
2022-08-16T18:49:51.489Z,36.30
2022-08-16T18:52:25.098Z,36.20
2022-08-16T18:55:03.119Z,36.20
2022-08-16T18:57:43.704Z,36.10
2022-08-16T19:00:15.630Z,36.10
2022-08-16T19:02:58.773Z,36.00
2022-08-16T19:05:31.474Z,36.00
2022-08-16T19:08:00.972Z,35.90
2022-08-16T19:10:32.996Z,35.90
2022-08-16T19:13:08.281Z,35.90
2022-08-16T19:15:38.743Z,35.80
2022-08-16T19:18:07.695Z,35.80
2022-08-16T19:20:37.110Z,35.70
2022-08-16T19:23:11.314Z,35.60
2022-08-16T19:25:48.670Z,35.60
2022-08-16T19:28:50.682Z,35.50
2022-08-16T19:31:21.383Z,35.50
2022-08-16T19:33:54.840Z,35.60
2022-08-16T19:36:32.064Z,35.60
2022-08-16T19:39:10.553Z,35.60
2022-08-16T19:41:44.776Z,35.60
2022-08-16T19:44:14.499Z,35.60
2022-08-16T19:46:46.561Z,35.60
2022-08-16T19:49:16.284Z,35.60
2022-08-16T19:51:45.691Z,35.60
2022-08-16T19:54:14.312Z,35.50
2022-08-16T19:56:44.766Z,35.50
2022-08-16T19:59:20.022Z,35.60
2022-08-16T20:01:52.566Z,35.60
2022-08-16T20:04:22.360Z,35.50
2022-08-16T20:06:52.576Z,35.50
2022-08-16T20:09:22.143Z,35.40
2022-08-16T20:11:54.213Z,35.40
2022-08-16T20:14:26.093Z,35.40
2022-08-16T20:16:57.788Z,35.30
2022-08-16T20:19:28.012Z,35.30
2022-08-16T20:22:01.748Z,35.20
2022-08-16T20:24:35.628Z,35.20
2022-08-16T20:27:09.748Z,35.10
2022-08-16T20:29:45.235Z,35.10
2022-08-16T20:32:20.530Z,35.00
2022-08-16T20:34:54.915Z,35.00
2022-08-16T20:37:23.775Z,35.00
2022-08-16T20:40:28.014Z,34.90
2022-08-16T20:43:00.074Z,35.00
2022-08-16T20:45:29.602Z,35.00
2022-08-16T20:47:58.381Z,34.90
2022-08-16T20:50:27.387Z,34.90
2022-08-16T20:52:56.262Z,34.90
2022-08-16T20:55:26.261Z,34.90
2022-08-16T20:57:59.036Z,34.80
2022-08-16T21:00:29.068Z,34.80
2022-08-16T21:02:57.693Z,34.80
2022-08-16T21:05:31.054Z,34.80
2022-08-16T21:08:00.695Z,34.80
2022-08-16T21:10:29.619Z,34.80
2022-08-16T21:13:02.807Z,34.80
2022-08-16T21:15:34.584Z,34.70
2022-08-16T21:18:03.645Z,34.80
2022-08-16T21:20:32.523Z,34.80
2022-08-16T21:23:04.748Z,34.80
2022-08-16T21:25:34.251Z,34.90
2022-08-16T21:28:40.526Z,34.80
2022-08-16T21:30:54.181Z,34.70
2022-08-16T21:33:23.178Z,34.70
2022-08-16T21:35:54.596Z,34.60
2022-08-16T21:38:29.573Z,34.50
2022-08-16T21:40:59.532Z,34.50
2022-08-16T21:43:32.319Z,34.50
2022-08-16T21:46:03.369Z,34.50
2022-08-16T21:48:34.565Z,34.60
2022-08-16T21:51:06.391Z,34.50
2022-08-16T21:53:35.357Z,34.40
2022-08-16T21:56:06.057Z,34.40
2022-08-16T21:58:36.580Z,34.40
2022-08-16T22:01:06.656Z,34.30
2022-08-16T22:03:35.484Z,34.20
2022-08-16T22:06:13.225Z,34.20
2022-08-16T22:08:49.369Z,34.10
2022-08-16T22:11:21.625Z,34.10
2022-08-16T22:13:57.975Z,34.10
2022-08-16T22:16:32.720Z,34.10
2022-08-16T22:19:02.918Z,34.10
2022-08-16T22:21:33.440Z,34.10
2022-08-16T22:24:02.448Z,34.10
2022-08-16T22:26:42.319Z,34.10
2022-08-16T22:29:15.484Z,34.10
2022-08-16T22:31:45.224Z,34.10
2022-08-16T22:34:14.783Z,34.10
2022-08-16T22:36:43.640Z,34.00
2022-08-16T22:39:15.013Z,33.90
2022-08-16T22:41:45.863Z,34.00
2022-08-16T22:44:16.692Z,33.90
2022-08-16T22:46:46.298Z,33.90
2022-08-16T22:49:15.938Z,33.90
2022-08-16T22:51:44.725Z,33.80
2022-08-16T22:54:44.397Z,33.90
2022-08-16T22:57:02.940Z,33.90
2022-08-16T22:59:33.672Z,33.80
2022-08-16T23:02:07.067Z,33.80
2022-08-16T23:04:35.844Z,33.80
2022-08-16T23:07:06.678Z,33.70
2022-08-16T23:09:35.238Z,33.70
2022-08-16T23:12:07.353Z,33.70
2022-08-16T23:14:37.439Z,33.70
2022-08-16T23:17:06.128Z,33.60
2022-08-16T23:19:34.700Z,33.60
2022-08-16T23:22:04.644Z,33.60
2022-08-16T23:24:38.220Z,33.60
2022-08-16T23:27:22.208Z,33.60
2022-08-16T23:29:52.689Z,33.60
2022-08-16T23:32:21.282Z,33.50
2022-08-16T23:34:50.019Z,33.50
2022-08-16T23:37:21.892Z,33.50
2022-08-16T23:39:50.776Z,33.60
2022-08-16T23:42:52.176Z,33.50
2022-08-16T23:45:13.748Z,33.60
2022-08-16T23:47:42.277Z,33.60
2022-08-16T23:50:12.521Z,33.60
2022-08-16T23:53:02.262Z,33.60
2022-08-16T23:55:33.598Z,33.60
2022-08-16T23:58:02.529Z,33.60
